createdAt,value
2022-09-28T00:00:02.535Z,29.10
2022-09-28T00:01:02.514Z,25.10
2022-09-28T00:02:02.576Z,23.70
2022-09-28T00:03:02.580Z,24.90
2022-09-28T00:04:02.484Z,25.60
2022-09-28T00:05:02.473Z,26.10
2022-09-28T00:06:02.466Z,26.00
2022-09-28T00:07:02.462Z,24.20
2022-09-28T00:08:02.442Z,25.00
2022-09-28T00:09:02.562Z,27.60
2022-09-28T00:10:02.453Z,26.00
2022-09-28T00:11:02.476Z,24.60
2022-09-28T00:12:02.446Z,26.00
2022-09-28T00:13:02.392Z,27.80
2022-09-28T00:14:02.397Z,29.60
2022-09-28T00:15:02.382Z,26.60
2022-09-28T00:16:02.412Z,24.90
2022-09-28T00:17:02.362Z,28.80
2022-09-28T00:18:02.333Z,27.20
2022-09-28T00:19:02.326Z,25.20
2022-09-28T00:20:02.314Z,25.80
2022-09-28T00:21:02.364Z,24.50
2022-09-28T00:22:02.310Z,23.80
2022-09-28T00:23:02.282Z,24.00
2022-09-28T00:24:02.262Z,25.70
2022-09-28T00:25:02.262Z,27.20
2022-09-28T00:26:02.248Z,21.50
2022-09-28T00:27:02.272Z,23.90
2022-09-28T00:28:02.233Z,23.20
2022-09-28T00:29:02.226Z,24.00
2022-09-28T00:30:02.204Z,24.10
2022-09-28T00:31:02.309Z,26.50
2022-09-28T00:32:02.272Z,23.90
2022-09-28T00:33:02.201Z,23.20
2022-09-28T00:34:02.161Z,24.70
2022-09-28T00:35:02.172Z,26.10
2022-09-28T00:36:02.141Z,25.10
2022-09-28T00:37:02.131Z,24.70
2022-09-28T00:38:02.122Z,22.70
2022-09-28T00:39:02.141Z,26.30
2022-09-28T00:40:02.100Z,23.20
2022-09-28T00:41:02.160Z,24.70
2022-09-28T00:42:09.120Z,23.90
2022-09-28T00:43:02.066Z,26.10
2022-09-28T00:44:02.060Z,26.30
2022-09-28T00:45:02.079Z,25.70
2022-09-28T00:46:02.086Z,22.90
2022-09-28T00:47:02.050Z,20.90
2022-09-28T00:48:02.029Z,25.40
2022-09-28T00:49:02.019Z,23.40
2022-09-28T00:50:02.026Z,22.70
2022-09-28T00:51:02.070Z,21.40
2022-09-28T00:52:02.008Z,21.90
2022-09-28T00:53:01.959Z,21.40
2022-09-28T00:54:01.949Z,21.50
2022-09-28T00:55:01.955Z,20.80
2022-09-28T00:56:01.939Z,19.70
2022-09-28T00:57:01.950Z,21.30
2022-09-28T00:58:01.937Z,19.90
2022-09-28T00:59:01.898Z,17.50
2022-09-28T01:00:01.886Z,19.90
2022-09-28T01:01:02.019Z,19.90
2022-09-28T01:02:01.948Z,19.70
2022-09-28T01:03:01.863Z,18.80
2022-09-28T01:04:01.861Z,18.10
2022-09-28T01:05:01.834Z,18.00
2022-09-28T01:06:01.826Z,19.70
2022-09-28T01:07:01.811Z,15.90
2022-09-28T01:08:01.852Z,16.80
2022-09-28T01:09:01.797Z,16.00
2022-09-28T01:10:01.784Z,16.20
2022-09-28T01:11:01.769Z,17.60
2022-09-28T01:12:01.868Z,14.60
2022-09-28T01:13:01.806Z,15.80
2022-09-28T01:14:01.739Z,14.40
2022-09-28T01:15:01.740Z,16.40
2022-09-28T01:16:01.781Z,14.60
2022-09-28T01:17:01.745Z,12.70
2022-09-28T01:18:01.719Z,15.10
2022-09-28T01:19:01.687Z,13.10
2022-09-28T01:20:01.675Z,13.20
2022-09-28T01:21:01.666Z,13.70
2022-09-28T01:22:01.671Z,12.80
2022-09-28T01:23:01.673Z,13.20
2022-09-28T01:24:01.628Z,14.10
2022-09-28T01:25:01.620Z,12.60
2022-09-28T01:26:01.607Z,10.80
2022-09-28T01:27:01.597Z,13.20
2022-09-28T01:28:01.587Z,10.90
2022-09-28T01:29:01.625Z,11.90
2022-09-28T01:30:01.571Z,11.80
2022-09-28T01:31:01.556Z,12.30
2022-09-28T01:32:01.643Z,10.30
2022-09-28T01:33:01.537Z,11.70
2022-09-28T01:34:01.526Z,12.40
2022-09-28T01:35:01.557Z,11.80
2022-09-28T01:36:01.496Z,12.60
2022-09-28T01:37:01.496Z,11.30
2022-09-28T01:38:01.498Z,11.60
2022-09-28T01:39:01.496Z,10.40
2022-09-28T01:40:01.556Z,12.10
2022-09-28T01:41:01.445Z,11.20
2022-09-28T01:42:01.447Z,10.30
2022-09-28T01:43:01.446Z,10.70
2022-09-28T01:44:01.445Z,11.50
2022-09-28T01:45:01.410Z,12.60
2022-09-28T01:46:01.460Z,10.70
2022-09-28T01:47:01.394Z,10.70
2022-09-28T01:48:01.375Z,11.30
2022-09-28T01:49:01.373Z,11.10
2022-09-28T01:50:01.384Z,11.50
2022-09-28T01:51:01.364Z,12.50
2022-09-28T01:52:01.417Z,10.60
2022-09-28T01:53:01.341Z,12.70
2022-09-28T01:54:01.304Z,11.40
2022-09-28T01:55:01.341Z,10.20
2022-09-28T01:56:01.350Z,11.60
2022-09-28T01:57:01.285Z,10.90
2022-09-28T01:58:01.373Z,9.60
2022-09-28T01:59:01.283Z,11.00
2022-09-28T02:00:01.307Z,11.20
2022-09-28T02:01:01.336Z,12.20
2022-09-28T02:02:01.281Z,10.00
2022-09-28T02:03:01.291Z,10.80
2022-09-28T02:04:01.204Z,12.30
2022-09-28T02:05:01.243Z,12.20
2022-09-28T02:06:01.205Z,15.50
2022-09-28T02:07:01.203Z,9.80
2022-09-28T02:08:01.152Z,10.60
2022-09-28T02:09:01.164Z,12.30
2022-09-28T02:10:01.162Z,15.10
2022-09-28T02:11:01.171Z,11.20
2022-09-28T02:12:01.129Z,11.50
2022-09-28T02:13:01.112Z,11.50
2022-09-28T02:14:01.094Z,13.70
2022-09-28T02:15:01.099Z,12.60
2022-09-28T02:16:01.169Z,13.60
2022-09-28T02:17:01.093Z,13.50
2022-09-28T02:18:01.094Z,12.20
2022-09-28T02:19:01.042Z,12.40
2022-09-28T02:20:01.041Z,14.10
2022-09-28T02:21:01.078Z,14.50
2022-09-28T02:22:01.133Z,14.90
2022-09-28T02:23:01.003Z,15.50
2022-09-28T02:24:00.985Z,14.60
2022-09-28T02:25:00.979Z,15.70
2022-09-28T02:26:00.961Z,15.00
2022-09-28T02:27:01.009Z,16.60
2022-09-28T02:28:00.944Z,19.10
2022-09-28T02:29:00.961Z,18.60
2022-09-28T02:30:00.922Z,17.50
2022-09-28T02:31:00.923Z,18.40
2022-09-28T02:32:00.962Z,17.90
2022-09-28T02:33:00.929Z,22.30
2022-09-28T02:34:00.881Z,19.90
2022-09-28T02:35:00.877Z,20.10
2022-09-28T02:36:00.880Z,20.90
2022-09-28T02:37:00.880Z,20.70
2022-09-28T02:38:00.837Z,21.20
2022-09-28T02:39:00.880Z,22.90
2022-09-28T02:40:00.840Z,20.60
2022-09-28T02:41:00.926Z,21.30
2022-09-28T02:42:00.803Z,20.90
2022-09-28T02:43:00.790Z,20.10
2022-09-28T02:44:00.815Z,20.90
2022-09-28T02:45:00.796Z,20.80
2022-09-28T02:46:00.771Z,21.10
2022-09-28T02:47:00.740Z,20.10
2022-09-28T02:48:00.731Z,21.80
2022-09-28T02:49:20.456Z,22.40
2022-09-28T02:50:01.741Z,21.50
2022-09-28T02:51:00.760Z,21.90
2022-09-28T02:52:00.758Z,23.80
2022-09-28T02:53:00.759Z,22.50
2022-09-28T02:54:00.717Z,22.20
2022-09-28T02:55:00.718Z,22.00
2022-09-28T02:56:00.753Z,21.90
2022-09-28T02:57:00.650Z,22.20
2022-09-28T02:58:00.701Z,21.30
2022-09-28T02:59:00.630Z,23.10
2022-09-28T03:00:00.600Z,23.40
2022-09-28T03:01:00.687Z,25.20
2022-09-28T03:02:00.727Z,23.70
2022-09-28T03:03:00.598Z,25.70
2022-09-28T03:04:00.598Z,22.80
2022-09-28T03:05:00.598Z,22.20
2022-09-28T03:06:00.557Z,24.80
2022-09-28T03:07:00.558Z,24.60
2022-09-28T03:08:00.558Z,24.00
2022-09-28T03:09:00.559Z,25.80
2022-09-28T03:10:00.528Z,24.20
2022-09-28T03:11:00.499Z,22.90
2022-09-28T03:12:00.474Z,26.00
2022-09-28T03:13:00.466Z,24.70
2022-09-28T03:14:00.538Z,25.40
2022-09-28T03:15:00.488Z,26.80
2022-09-28T03:16:00.532Z,25.60
2022-09-28T03:17:00.430Z,27.70
2022-09-28T03:18:00.525Z,26.40
2022-09-28T03:19:00.598Z,27.50
2022-09-28T03:20:00.387Z,31.30
2022-09-28T03:21:00.415Z,29.40
2022-09-28T03:22:00.367Z,30.40
2022-09-28T03:23:23.320Z,28.00
2022-09-28T03:24:01.368Z,29.90
2022-09-28T03:25:00.360Z,27.70
2022-09-28T03:26:00.362Z,28.90
2022-09-28T03:27:00.328Z,29.80
2022-09-28T03:28:00.356Z,29.90
2022-09-28T03:29:00.310Z,28.70
2022-09-28T03:30:00.321Z,29.60
2022-09-28T03:31:00.307Z,28.70
2022-09-28T03:32:00.323Z,29.70
2022-09-28T03:33:00.255Z,29.80
2022-09-28T03:34:00.309Z,29.30
2022-09-28T03:35:00.237Z,26.30
2022-09-28T03:36:00.228Z,26.50
2022-09-28T03:37:00.210Z,27.50
2022-09-28T03:38:00.196Z,26.90
2022-09-28T03:39:00.195Z,26.10
2022-09-28T03:40:00.211Z,27.60
2022-09-28T03:41:00.353Z,24.90
2022-09-28T03:42:00.170Z,26.60
2022-09-28T03:43:00.145Z,26.80
2022-09-28T03:44:00.125Z,28.00
2022-09-28T03:45:00.135Z,27.70
2022-09-28T03:46:00.333Z,24.70
2022-09-28T03:47:00.131Z,26.20
2022-09-28T03:48:00.134Z,26.70
2022-09-28T03:49:00.107Z,27.30
2022-09-28T03:50:00.085Z,28.80
2022-09-28T03:51:00.076Z,26.30
2022-09-28T03:52:00.140Z,27.30
2022-09-28T03:53:00.080Z,26.00
2022-09-28T03:54:00.046Z,26.50
2022-09-28T03:55:00.016Z,28.30
2022-09-28T03:56:00.006Z,27.80
2022-09-28T03:56:59.995Z,25.20
2022-09-28T03:57:59.985Z,24.30
2022-09-28T03:59:00.010Z,23.50
2022-09-28T04:00:00.016Z,25.00
2022-09-28T04:00:59.960Z,26.40
2022-09-28T04:01:59.970Z,23.20
2022-09-28T04:02:59.924Z,23.90
2022-09-28T04:04:03.404Z,25.30
2022-09-28T04:04:59.904Z,23.30
2022-09-28T04:05:59.942Z,25.50
2022-09-28T04:06:59.899Z,24.50
2022-09-28T04:07:59.882Z,26.70
2022-09-28T04:08:59.914Z,24.70
2022-09-28T04:09:59.853Z,26.70
2022-09-28T04:10:59.855Z,27.90
2022-09-28T04:12:04.183Z,26.60
2022-09-28T04:12:59.826Z,24.10
2022-09-28T04:13:59.823Z,24.80
2022-09-28T04:14:59.812Z,38.50
2022-09-28T04:15:59.865Z,27.00
2022-09-28T04:16:59.781Z,27.00
2022-09-28T04:17:59.803Z,27.40
2022-09-28T04:18:59.765Z,25.60
2022-09-28T04:19:59.756Z,25.90
2022-09-28T04:20:59.775Z,25.40
2022-09-28T04:21:59.742Z,24.80
2022-09-28T04:22:59.715Z,26.50
2022-09-28T04:23:59.712Z,28.30
2022-09-28T04:24:59.694Z,25.10
2022-09-28T04:25:59.683Z,27.40
2022-09-28T04:26:59.712Z,25.10
2022-09-28T04:27:59.662Z,27.70
2022-09-28T04:29:03.993Z,28.40
2022-09-28T04:30:00.681Z,25.00
2022-09-28T04:30:59.639Z,25.80
2022-09-28T04:31:59.758Z,26.50
2022-09-28T04:32:59.671Z,28.30
2022-09-28T04:33:59.627Z,28.20
2022-09-28T04:34:59.582Z,26.20
2022-09-28T04:35:59.582Z,26.80
2022-09-28T04:36:59.569Z,29.00
2022-09-28T04:37:59.563Z,26.20
2022-09-28T04:38:59.655Z,26.50
2022-09-28T04:39:59.551Z,26.60
2022-09-28T04:40:59.543Z,28.50
2022-09-28T04:41:59.542Z,26.60
2022-09-28T04:42:59.552Z,26.80
2022-09-28T04:43:59.492Z,28.70
2022-09-28T04:44:59.483Z,28.60
2022-09-28T04:45:59.505Z,25.10
2022-09-28T04:47:04.215Z,28.00
2022-09-28T04:48:00.481Z,25.70
2022-09-28T04:48:59.439Z,27.60
2022-09-28T04:49:59.431Z,29.10
2022-09-28T04:50:59.422Z,28.60
2022-09-28T04:51:59.410Z,31.00
2022-09-28T04:52:59.409Z,31.00
2022-09-28T04:53:59.481Z,28.60
2022-09-28T04:54:59.369Z,29.60
2022-09-28T04:55:59.370Z,28.90
2022-09-28T04:56:59.380Z,31.40
2022-09-28T04:57:59.379Z,31.00
2022-09-28T04:58:59.337Z,31.40
2022-09-28T04:59:59.328Z,34.10
2022-09-28T05:00:59.388Z,31.80
2022-09-28T05:01:59.330Z,33.00
2022-09-28T05:02:59.359Z,34.00
2022-09-28T05:03:59.310Z,33.70
2022-09-28T05:04:59.269Z,36.50
2022-09-28T05:05:59.261Z,34.00
2022-09-28T05:06:59.264Z,35.90
2022-09-28T05:07:59.480Z,37.60
2022-09-28T05:08:59.221Z,36.60
2022-09-28T05:09:59.219Z,36.60
2022-09-28T05:10:59.211Z,38.60
2022-09-28T05:11:59.230Z,38.60
2022-09-28T05:12:59.198Z,39.70
2022-09-28T05:13:59.168Z,41.20
2022-09-28T05:14:59.188Z,37.90
2022-09-28T05:16:04.346Z,38.80
2022-09-28T05:17:00.210Z,41.20
2022-09-28T05:18:02.388Z,39.90
2022-09-28T05:18:59.108Z,40.80
2022-09-28T05:19:59.114Z,38.20
2022-09-28T05:20:59.097Z,37.60
2022-09-28T05:21:59.090Z,40.70
2022-09-28T05:22:59.148Z,37.70
2022-09-28T05:23:59.069Z,41.50
2022-09-28T05:24:59.050Z,37.30
2022-09-28T05:25:59.076Z,38.70
2022-09-28T05:26:59.078Z,41.60
2022-09-28T05:27:59.066Z,39.00
2022-09-28T05:28:59.047Z,38.50
2022-09-28T05:29:58.999Z,36.80
2022-09-28T05:30:58.986Z,38.90
2022-09-28T05:31:59.089Z,38.70
2022-09-28T05:32:58.986Z,41.20
2022-09-28T05:33:58.957Z,41.40
2022-09-28T05:34:58.943Z,40.70
2022-09-28T05:36:01.268Z,39.00
2022-09-28T05:36:58.918Z,36.10
2022-09-28T05:37:58.967Z,35.00
2022-09-28T05:38:58.917Z,33.30
2022-09-28T05:39:58.898Z,33.80
2022-09-28T05:41:02.104Z,36.20
2022-09-28T05:41:59.878Z,33.70
2022-09-28T05:42:58.884Z,32.90
2022-09-28T05:43:58.885Z,33.40
2022-09-28T05:44:58.838Z,32.90
2022-09-28T05:45:58.896Z,33.70
2022-09-28T05:46:58.836Z,34.10
2022-09-28T05:47:58.808Z,34.70
2022-09-28T05:48:58.847Z,31.50
2022-09-28T05:49:58.796Z,32.80
2022-09-28T05:50:58.778Z,34.90
2022-09-28T05:51:58.771Z,32.60
2022-09-28T05:52:58.764Z,33.10
2022-09-28T05:54:01.771Z,34.30
2022-09-28T05:54:59.806Z,35.90
2022-09-28T05:55:58.728Z,35.20
2022-09-28T05:56:58.712Z,33.00
2022-09-28T05:57:58.725Z,33.50
2022-09-28T05:58:58.719Z,31.70
2022-09-28T05:59:58.684Z,36.40
2022-09-28T06:01:01.428Z,33.70
2022-09-28T06:01:58.737Z,32.80
2022-09-28T06:02:58.657Z,33.80
2022-09-28T06:03:58.645Z,34.20
2022-09-28T06:04:58.636Z,36.00
2022-09-28T06:05:58.629Z,33.50
2022-09-28T06:06:58.735Z,34.70
2022-09-28T06:07:58.606Z,34.20
2022-09-28T06:08:58.595Z,33.60
2022-09-28T06:09:58.597Z,31.60
2022-09-28T06:10:58.686Z,32.60
2022-09-28T06:11:58.556Z,32.10
2022-09-28T06:12:58.555Z,34.00
2022-09-28T06:13:58.535Z,34.40
2022-09-28T06:14:58.515Z,34.40
2022-09-28T06:15:58.516Z,32.10
2022-09-28T06:16:58.736Z,35.70
2022-09-28T06:17:58.511Z,32.50
2022-09-28T06:18:58.484Z,34.10
2022-09-28T06:19:58.515Z,37.00
2022-09-28T06:20:58.454Z,33.60
2022-09-28T06:21:59.430Z,31.60
2022-09-28T06:22:58.557Z,33.30
2022-09-28T06:23:58.431Z,31.40
2022-09-28T06:24:58.414Z,33.80
2022-09-28T06:25:58.410Z,32.10
2022-09-28T06:26:58.394Z,31.60
2022-09-28T06:27:58.438Z,34.00
2022-09-28T06:28:58.375Z,31.90
2022-09-28T06:29:58.473Z,33.90
2022-09-28T06:30:58.425Z,32.70
2022-09-28T06:31:58.358Z,33.90
2022-09-28T06:32:58.339Z,34.60
2022-09-28T06:33:58.324Z,35.20
2022-09-28T06:34:58.314Z,34.80
2022-09-28T06:35:58.331Z,35.30
2022-09-28T06:36:58.290Z,37.80
2022-09-28T06:37:58.275Z,39.60
2022-09-28T06:38:58.262Z,37.70
2022-09-28T06:39:58.254Z,42.70
2022-09-28T06:40:58.308Z,39.90
2022-09-28T06:41:58.274Z,39.10
2022-09-28T06:44:08.457Z,40.70
2022-09-28T06:45:07.715Z,40.00
2022-09-28T06:46:07.782Z,43.90
2022-09-28T06:47:09.379Z,42.90
2022-09-28T06:48:07.678Z,40.20
2022-09-28T06:49:07.697Z,43.00
2022-09-28T06:50:07.658Z,41.40
2022-09-28T06:51:07.657Z,43.80
2022-09-28T06:52:07.637Z,41.30
2022-09-28T06:53:07.628Z,40.20
2022-09-28T06:54:10.811Z,42.40
2022-09-28T06:55:07.607Z,40.60
2022-09-28T06:56:07.597Z,41.60
2022-09-28T06:57:07.587Z,41.10
2022-09-28T06:58:07.567Z,41.00
2022-09-28T06:59:07.595Z,40.10
2022-09-28T07:00:07.591Z,46.70
2022-09-28T07:01:07.595Z,40.30
2022-09-28T07:02:07.560Z,43.00
2022-09-28T07:03:07.540Z,40.80
2022-09-28T07:04:07.506Z,41.60
2022-09-28T07:05:07.537Z,41.20
2022-09-28T07:06:07.487Z,40.40
2022-09-28T07:07:07.513Z,41.50
2022-09-28T07:08:07.486Z,41.80
2022-09-28T07:09:22.522Z,41.40
2022-09-28T07:10:08.445Z,42.30
2022-09-28T07:11:07.437Z,42.70
2022-09-28T07:12:07.416Z,44.00
2022-09-28T07:13:32.698Z,36.80
2022-09-28T07:14:09.633Z,42.80
2022-09-28T07:15:07.437Z,39.70
2022-09-28T07:16:10.602Z,40.20
2022-09-28T07:17:13.705Z,39.20
2022-09-28T07:18:08.391Z,38.70
2022-09-28T07:19:07.352Z,41.90
2022-09-28T07:20:16.374Z,39.30
2022-09-28T07:21:10.455Z,38.30
2022-09-28T07:22:07.567Z,43.40
2022-09-28T07:23:16.579Z,40.20
2022-09-28T07:24:08.296Z,35.50
2022-09-28T07:25:07.306Z,38.40
2022-09-28T07:26:09.255Z,38.00
2022-09-28T07:27:07.267Z,41.30
2022-09-28T07:28:07.256Z,39.20
2022-09-28T07:29:07.245Z,38.80
2022-09-28T07:30:07.236Z,41.50
2022-09-28T07:31:07.305Z,39.80
2022-09-28T07:32:07.233Z,40.50
2022-09-28T07:33:07.201Z,42.00
2022-09-28T07:34:07.213Z,42.30
2022-09-28T07:35:07.187Z,43.70
2022-09-28T07:36:07.164Z,41.10
2022-09-28T07:37:07.205Z,43.30
2022-09-28T07:38:07.155Z,40.10
2022-09-28T07:39:07.135Z,38.30
2022-09-28T07:40:07.127Z,40.00
2022-09-28T07:41:07.260Z,41.40
2022-09-28T07:42:07.105Z,38.90
2022-09-28T07:43:07.148Z,42.40
2022-09-28T07:44:07.084Z,38.40
2022-09-28T07:45:07.092Z,35.40
2022-09-28T07:46:12.534Z,39.10
2022-09-28T07:47:07.063Z,36.20
2022-09-28T07:48:07.053Z,35.00
2022-09-28T07:49:09.953Z,37.80
2022-09-28T07:50:13.105Z,34.40
2022-09-28T07:51:07.014Z,35.30
2022-09-28T07:52:06.998Z,40.20
2022-09-28T07:53:07.042Z,36.30
2022-09-28T07:54:06.973Z,36.40
2022-09-28T07:55:07.532Z,37.00
2022-09-28T07:56:06.963Z,35.70
2022-09-28T07:57:06.944Z,37.60
2022-09-28T07:58:06.932Z,40.20
2022-09-28T07:59:06.984Z,39.90
2022-09-28T08:00:06.922Z,35.30
2022-09-28T08:01:07.020Z,35.20
2022-09-28T08:02:06.972Z,36.70
2022-09-28T08:03:06.882Z,35.70
2022-09-28T08:04:06.895Z,35.60
2022-09-28T08:05:06.882Z,36.80
2022-09-28T08:06:06.842Z,33.90
2022-09-28T08:07:06.842Z,33.10
2022-09-28T08:08:06.842Z,33.00
2022-09-28T08:09:06.820Z,33.10
2022-09-28T08:10:06.843Z,33.70
2022-09-28T08:11:06.809Z,33.60
2022-09-28T08:12:06.784Z,35.60
2022-09-28T08:13:08.709Z,32.80
2022-09-28T08:14:06.852Z,31.70
2022-09-28T08:15:06.757Z,36.30
2022-09-28T08:16:06.742Z,31.00
2022-09-28T08:17:06.742Z,32.50
2022-09-28T08:18:06.812Z,31.60
2022-09-28T08:19:06.724Z,30.60
2022-09-28T08:20:06.692Z,29.50
2022-09-28T08:21:06.731Z,30.00
2022-09-28T08:22:06.680Z,28.70
2022-09-28T08:23:06.713Z,28.90
2022-09-28T08:24:06.652Z,27.50
2022-09-28T08:25:06.656Z,28.30
2022-09-28T08:26:06.663Z,28.80
2022-09-28T08:27:06.660Z,28.80
2022-09-28T08:28:06.611Z,30.10
2022-09-28T08:29:06.640Z,28.10
2022-09-28T08:30:06.601Z,30.00
2022-09-28T08:31:13.997Z,28.10
2022-09-28T08:32:06.571Z,29.70
2022-09-28T08:33:06.561Z,29.60
2022-09-28T08:34:06.621Z,29.90
2022-09-28T08:35:06.540Z,26.40
2022-09-28T08:36:06.531Z,27.60
2022-09-28T08:37:06.531Z,29.60
2022-09-28T08:38:06.511Z,29.30
2022-09-28T08:39:06.500Z,29.90
2022-09-28T08:40:06.527Z,28.40
2022-09-28T08:41:06.487Z,29.20
2022-09-28T08:42:06.460Z,28.60
2022-09-28T08:43:06.468Z,28.30
2022-09-28T08:44:06.492Z,30.20
2022-09-28T08:45:06.456Z,31.70
2022-09-28T08:46:06.463Z,33.70
2022-09-28T08:47:06.410Z,30.20
2022-09-28T08:48:06.405Z,29.80
2022-09-28T08:49:24.194Z,29.00
2022-09-28T08:50:07.380Z,26.80
2022-09-28T08:51:06.369Z,25.20
2022-09-28T08:52:06.393Z,26.70
2022-09-28T08:53:06.359Z,27.00
2022-09-28T08:54:09.499Z,26.40
2022-09-28T08:55:07.330Z,26.10
2022-09-28T08:56:06.309Z,27.60
2022-09-28T08:57:06.333Z,24.50
2022-09-28T08:58:06.309Z,24.10
2022-09-28T08:59:06.339Z,22.20
2022-09-28T09:00:10.985Z,23.40
2022-09-28T09:01:07.304Z,22.90
2022-09-28T09:02:06.334Z,23.80
2022-09-28T09:03:06.238Z,23.50
2022-09-28T09:04:06.238Z,22.20
2022-09-28T09:05:06.313Z,20.00
2022-09-28T09:06:06.208Z,22.60
2022-09-28T09:07:06.203Z,22.90
2022-09-28T09:08:06.219Z,21.90
2022-09-28T09:09:06.185Z,22.80
2022-09-28T09:10:06.188Z,23.30
2022-09-28T09:11:06.158Z,23.40
2022-09-28T09:12:06.139Z,23.30
2022-09-28T09:13:06.186Z,24.70
2022-09-28T09:14:06.132Z,22.30
2022-09-28T09:15:06.122Z,22.90
2022-09-28T09:16:06.099Z,21.60
2022-09-28T09:17:06.150Z,22.50
2022-09-28T09:18:06.088Z,21.50
2022-09-28T09:19:14.286Z,21.80
2022-09-28T09:20:06.058Z,19.70
2022-09-28T09:21:06.091Z,20.60
2022-09-28T09:22:06.037Z,19.10
2022-09-28T09:23:06.027Z,19.50
2022-09-28T09:24:06.057Z,19.10
2022-09-28T09:25:06.007Z,17.20
2022-09-28T09:26:05.997Z,18.60
2022-09-28T09:27:06.072Z,17.40
2022-09-28T09:28:05.979Z,17.10
2022-09-28T09:29:06.001Z,16.80
2022-09-28T09:30:05.958Z,15.20
2022-09-28T09:31:06.026Z,14.80
2022-09-28T09:32:05.966Z,17.30
2022-09-28T09:33:05.940Z,17.00
2022-09-28T09:34:05.937Z,18.00
2022-09-28T09:35:05.906Z,17.10
2022-09-28T09:36:05.887Z,16.70
2022-09-28T09:37:05.885Z,17.00
2022-09-28T09:38:08.806Z,16.50
2022-09-28T09:39:05.856Z,16.00
2022-09-28T09:40:05.856Z,16.00
2022-09-28T09:41:05.921Z,15.40
2022-09-28T09:42:05.836Z,16.30
2022-09-28T09:43:05.859Z,14.60
2022-09-28T09:44:05.805Z,15.10
2022-09-28T09:45:05.797Z,16.00
2022-09-28T09:46:07.519Z,14.20
2022-09-28T09:47:05.805Z,16.10
2022-09-28T09:48:05.775Z,14.00
2022-09-28T09:49:05.778Z,15.80
2022-09-28T09:50:08.529Z,14.20
2022-09-28T09:51:05.727Z,15.20
2022-09-28T09:52:09.595Z,13.20
2022-09-28T09:53:05.705Z,12.60
2022-09-28T09:54:05.708Z,12.50
2022-09-28T09:55:05.686Z,12.50
2022-09-28T09:56:05.675Z,13.80
2022-09-28T09:57:05.668Z,12.10
2022-09-28T09:58:05.684Z,8.70
2022-09-28T09:59:05.686Z,9.80
2022-09-28T10:00:05.629Z,9.20
2022-09-28T10:01:09.228Z,8.00
2022-09-28T10:02:08.745Z,11.50
2022-09-28T10:03:06.624Z,10.00
2022-09-28T10:04:05.642Z,9.70
2022-09-28T10:05:05.584Z,9.80
2022-09-28T10:06:05.564Z,11.60
2022-09-28T10:07:05.564Z,10.90
2022-09-28T10:08:05.542Z,10.40
2022-09-28T10:09:05.694Z,10.00
2022-09-28T10:10:05.624Z,11.00
2022-09-28T10:11:05.514Z,11.10
2022-09-28T10:12:05.493Z,9.70
2022-09-28T10:13:05.513Z,11.00
2022-09-28T10:14:05.474Z,9.60
2022-09-28T10:15:05.504Z,10.10
2022-09-28T10:16:05.464Z,10.40
2022-09-28T10:17:16.253Z,8.00
2022-09-28T10:18:05.434Z,8.80
2022-09-28T10:19:05.423Z,9.00
2022-09-28T10:20:05.414Z,11.70
2022-09-28T10:21:08.221Z,10.40
2022-09-28T10:22:05.383Z,9.70
2022-09-28T10:23:05.384Z,11.50
2022-09-28T10:24:12.304Z,13.00
2022-09-28T10:25:05.370Z,11.70
2022-09-28T10:26:05.355Z,11.30
2022-09-28T10:27:05.374Z,11.20
2022-09-28T10:28:05.334Z,12.30
2022-09-28T10:29:05.313Z,14.10
2022-09-28T10:30:05.314Z,13.00
2022-09-28T10:31:05.421Z,15.20
2022-09-28T10:32:05.293Z,12.70
2022-09-28T10:33:08.128Z,11.90
2022-09-28T10:34:05.262Z,11.90
2022-09-28T10:35:05.253Z,13.00
2022-09-28T10:36:05.354Z,11.90
2022-09-28T10:37:05.233Z,8.30
2022-09-28T10:38:05.263Z,12.00
2022-09-28T10:39:05.212Z,10.10
2022-09-28T10:40:05.203Z,9.50
2022-09-28T10:41:05.265Z,8.20
2022-09-28T10:42:05.262Z,8.90
2022-09-28T10:43:05.175Z,7.90
2022-09-28T10:44:05.151Z,7.50
2022-09-28T10:45:05.148Z,4.60
2022-09-28T10:46:05.200Z,4.40
2022-09-28T10:47:05.123Z,5.00
2022-09-28T10:48:05.152Z,4.20
2022-09-28T10:49:05.112Z,4.90
2022-09-28T10:50:05.100Z,5.50
2022-09-28T10:51:05.082Z,4.60
2022-09-28T10:52:05.072Z,4.30
2022-09-28T10:53:05.062Z,5.00
2022-09-28T10:54:05.123Z,5.00
2022-09-28T10:55:05.063Z,4.90
2022-09-28T10:56:05.042Z,4.70
2022-09-28T10:57:05.026Z,5.50
2022-09-28T10:58:05.012Z,4.70
2022-09-28T10:59:05.001Z,5.10
2022-09-28T11:00:05.029Z,7.60
2022-09-28T11:01:04.992Z,4.90
2022-09-28T11:02:05.007Z,5.10
2022-09-28T11:03:04.951Z,5.40
2022-09-28T11:04:07.985Z,5.30
2022-09-28T11:05:05.021Z,5.80
2022-09-28T11:06:04.922Z,6.40
2022-09-28T11:07:04.920Z,6.00
2022-09-28T11:08:04.901Z,5.20
2022-09-28T11:09:04.942Z,5.30
2022-09-28T11:10:04.914Z,5.30
2022-09-28T11:11:04.872Z,6.80
2022-09-28T11:12:04.903Z,5.70
2022-09-28T11:13:04.872Z,5.70
2022-09-28T11:14:04.851Z,6.10
2022-09-28T11:15:04.841Z,5.80
2022-09-28T11:16:04.821Z,5.40
2022-09-28T11:17:04.880Z,5.80
2022-09-28T11:18:04.842Z,6.00
2022-09-28T11:19:04.800Z,6.60
2022-09-28T11:20:04.782Z,5.00
2022-09-28T11:21:04.786Z,7.00
2022-09-28T11:22:04.761Z,6.30
2022-09-28T11:23:04.741Z,7.20
2022-09-28T11:24:04.771Z,6.90
2022-09-28T11:25:04.722Z,6.70
2022-09-28T11:26:04.728Z,7.00
2022-09-28T11:27:04.701Z,9.20
2022-09-28T11:28:04.908Z,7.60
2022-09-28T11:29:04.700Z,7.90
2022-09-28T11:30:04.679Z,8.90
2022-09-28T11:31:04.695Z,8.20
2022-09-28T11:32:04.656Z,7.30
2022-09-28T11:33:04.645Z,7.80
2022-09-28T11:34:04.661Z,9.80
2022-09-28T11:35:04.630Z,8.50
2022-09-28T11:36:04.621Z,8.40
2022-09-28T11:37:04.640Z,7.10
2022-09-28T11:38:04.581Z,8.80
2022-09-28T11:39:04.570Z,8.60
2022-09-28T11:40:04.578Z,10.70
2022-09-28T11:41:04.623Z,8.30
2022-09-28T11:42:04.550Z,7.40
2022-09-28T11:44:04.550Z,8.30
2022-09-28T11:45:04.509Z,8.20
2022-09-28T11:46:04.548Z,9.30
2022-09-28T11:47:04.491Z,7.70
2022-09-28T11:48:04.469Z,8.30
2022-09-28T11:49:04.462Z,7.40
2022-09-28T11:50:04.587Z,9.20
2022-09-28T11:51:04.449Z,8.40
2022-09-28T11:52:04.469Z,8.90
2022-09-28T11:53:05.120Z,11.70
2022-09-28T11:54:04.409Z,9.70
2022-09-28T11:55:04.679Z,9.10
2022-09-28T11:56:08.670Z,7.80
2022-09-28T11:57:04.479Z,8.80
2022-09-28T11:58:04.400Z,9.20
2022-09-28T11:59:04.500Z,10.20
2022-09-28T12:00:04.428Z,7.70
2022-09-28T12:01:04.629Z,9.50
2022-09-28T12:02:04.526Z,10.20
2022-09-28T12:03:04.471Z,8.30
2022-09-28T12:04:04.318Z,10.50
2022-09-28T12:05:04.301Z,8.50
2022-09-28T12:06:04.289Z,9.00
2022-09-28T12:07:04.310Z,8.50
2022-09-28T12:08:05.999Z,9.90
2022-09-28T12:09:04.259Z,8.50
2022-09-28T12:10:04.282Z,8.20
2022-09-28T12:11:04.235Z,8.40
2022-09-28T12:12:04.243Z,8.00
2022-09-28T12:13:04.231Z,8.30
2022-09-28T12:14:04.290Z,9.60
2022-09-28T12:15:04.199Z,7.80
2022-09-28T12:17:07.750Z,8.00
2022-09-28T12:18:04.257Z,7.70
2022-09-28T12:19:04.190Z,8.70
2022-09-28T12:20:04.370Z,9.60
2022-09-28T12:21:05.232Z,9.70
2022-09-28T12:22:04.120Z,9.90
2022-09-28T12:23:04.139Z,8.10
2022-09-28T12:24:04.098Z,7.90
2022-09-28T12:25:04.099Z,8.20
2022-09-28T12:26:04.078Z,10.10
2022-09-28T12:27:04.098Z,8.90
2022-09-28T12:28:04.080Z,7.60
2022-09-28T12:29:04.049Z,7.60
2022-09-28T12:30:04.042Z,7.60
2022-09-28T12:31:04.051Z,7.10
2022-09-28T12:32:04.019Z,8.80
2022-09-28T12:33:04.026Z,7.30
2022-09-28T12:34:03.999Z,9.80
2022-09-28T12:35:03.999Z,6.90
2022-09-28T12:36:03.975Z,7.80
2022-09-28T12:37:03.948Z,8.80
2022-09-28T12:38:03.988Z,8.20
2022-09-28T12:39:35.492Z,8.40
2022-09-28T12:40:05.395Z,7.70
2022-09-28T12:41:03.949Z,7.40
2022-09-28T12:42:03.915Z,6.90
2022-09-28T12:43:03.888Z,8.10
2022-09-28T12:44:03.919Z,6.60
2022-09-28T12:45:03.920Z,6.80
2022-09-28T12:46:12.637Z,8.30
2022-09-28T12:47:04.890Z,7.60
2022-09-28T12:48:03.839Z,7.00
2022-09-28T12:49:56.282Z,9.80
2022-09-28T12:50:37.659Z,10.30
2022-09-28T12:51:04.808Z,5.60
2022-09-28T12:52:03.808Z,4.60
2022-09-28T12:53:03.786Z,5.40
2022-09-28T12:54:03.801Z,4.80
2022-09-28T12:55:03.786Z,5.30
2022-09-28T12:56:03.789Z,5.60
2022-09-28T12:57:03.740Z,5.50
2022-09-28T12:58:03.739Z,5.80
2022-09-28T12:59:03.726Z,5.60
2022-09-28T13:00:03.749Z,4.90